Airfield :
LOGIN :

Register | Disclaimer

   EN    FR    IT 

 










Legend :    VFR   Marginal VFR   IFR   Intensive IFR   Very Intensive IFR
Visi :
Ceiling :
>= 8 km
>= 3000ft
5 to 8 km
1000 to 3000 ft
1500m to 5 km
500 to 1000 ft
800 to 1500m
200 to 500 ft
< 800m
< 200 ft
Symbols :   Thunderstorms  Fog  Heavy snow  Heavy precipitations  Wind > 20 kt
SIGMETs :     Misc.  Thunderstorms  Icing  Turbulence  Mountain Waves  Volcanic Ashes







- Airport Elevation : 699 ft
- IATA code : PAD


EDLP - Paderborn Lippstadt

CURRENT METAR :
  • 241720Z 29006KT 250V330 CAVOK 19/08 Q1013

EXPIRED METARs :
  • 241650Z 29008KT 250V320 CAVOK 20/09 Q1013
  • 241620Z 27008KT 220V330 CAVOK 21/08 Q1013
  • 241550Z 26007KT 220V310 CAVOK 21/08 Q1013
  • 241520Z 27007KT 180V330 CAVOK 21/09 Q1013
  • 241450Z 27009KT 220V320 CAVOK 22/07 Q1013

TAF TAF EDLP
Valid from the 24 at 18:00 until the 25 at 18:00 UTC


241700Z 2418/2518 27008KT CAVOK
PROB30
TEMPO 2418/2420 29013KT SHRA BKN050CB
BECMG 2419/2422 27003KT
PROB40
TEMPO 2504/2508 BKN010
TEMPO 2509/2514 30008KT
No reported NOTAMs for that airfield.



MET'MAP, your aeronautical weather chart ! - Copyright ORBIFLY December 2007 - Disclaimer

ORBIFLY MET'MAP TEAM :

Programming & Development : Alexandra Zaïnal
Concept & Development : Baudouin d'Aumeries
Co-Development & Prog : Marc-Olivier Méhu
Technical & hardware support : Manuel Goepfert

Contact : metmap@orbifly.com




SOURCES & CREDITS :

   NOAA